createdAt,value
2024-04-30T00:01:33.063Z,100595.00
2024-04-30T00:04:34.664Z,100590.84
2024-04-30T00:07:38.389Z,100592.94
2024-04-30T00:10:40.054Z,100586.75
2024-04-30T00:13:41.852Z,100583.47
2024-04-30T00:16:44.439Z,100577.53
2024-04-30T00:19:46.141Z,100577.16
2024-04-30T00:22:47.758Z,100586.91
2024-04-30T00:25:49.317Z,100585.47
2024-04-30T00:28:51.021Z,100586.91
2024-04-30T00:31:52.617Z,100581.59
2024-04-30T00:34:56.182Z,100583.47
2024-04-30T00:37:57.741Z,100582.66
2024-04-30T00:40:59.694Z,100571.50
2024-04-30T00:44:01.344Z,100567.31
2024-04-30T00:47:03.476Z,100571.06
2024-04-30T00:50:05.931Z,100572.28
2024-04-30T00:53:07.800Z,100562.00
2024-04-30T00:56:10.017Z,100568.34
2024-04-30T00:59:11.664Z,100578.25
2024-04-30T01:02:13.302Z,100563.25
2024-04-30T01:05:14.926Z,100565.16
2024-04-30T01:08:16.526Z,100572.50
2024-04-30T01:11:18.104Z,100558.22
2024-04-30T01:14:19.847Z,100562.66
2024-04-30T01:17:21.486Z,100568.88
2024-04-30T01:20:23.132Z,100563.56
2024-04-30T01:23:24.815Z,100567.09
2024-04-30T01:26:26.398Z,100562.66
2024-04-30T01:29:27.966Z,100555.72
2024-04-30T01:32:29.691Z,100552.31
2024-04-30T01:35:31.439Z,100551.03
2024-04-30T01:38:33.024Z,100556.75
2024-04-30T01:41:34.589Z,100557.16
2024-04-30T01:44:36.237Z,100558.03
2024-04-30T01:47:37.871Z,100564.34
2024-04-30T01:50:39.534Z,100567.97
2024-04-30T01:53:44.990Z,100562.88
2024-04-30T01:56:46.679Z,100561.44
2024-04-30T01:59:48.304Z,100557.78
2024-04-30T02:02:49.863Z,100559.56
2024-04-30T02:05:51.452Z,100551.25
2024-04-30T02:08:52.982Z,100552.44
2024-04-30T02:11:54.624Z,100553.50
2024-04-30T02:14:56.305Z,100554.63
2024-04-30T02:17:57.900Z,100552.75
2024-04-30T02:20:59.616Z,100553.94
2024-04-30T02:24:01.226Z,100547.91
2024-04-30T02:27:02.827Z,100544.28
2024-04-30T02:30:04.895Z,100548.72
2024-04-30T02:33:31.972Z,100539.97
2024-04-30T02:36:33.522Z,100542.22
2024-04-30T02:39:35.066Z,100538.09
2024-04-30T02:42:36.622Z,100530.63
2024-04-30T02:45:38.177Z,100537.91
2024-04-30T02:48:39.730Z,100530.81
2024-04-30T02:51:41.302Z,100528.41
2024-04-30T02:54:43.219Z,100537.84
2024-04-30T02:57:44.864Z,100526.47
2024-04-30T03:00:46.557Z,100521.38
2024-04-30T03:03:48.167Z,100524.03
2024-04-30T03:06:49.818Z,100516.09
2024-04-30T03:09:51.448Z,100512.25
2024-04-30T03:12:53.009Z,100510.78
2024-04-30T03:15:54.629Z,100504.00
2024-04-30T03:18:56.169Z,100503.34
2024-04-30T03:21:57.710Z,100496.88
2024-04-30T03:24:59.354Z,100505.72
2024-04-30T03:28:02.936Z,100486.41
2024-04-30T03:31:11.051Z,100482.63
2024-04-30T03:34:12.624Z,100477.41
2024-04-30T03:37:14.205Z,100474.66
2024-04-30T03:40:15.990Z,100485.09
2024-04-30T03:43:17.646Z,100479.75
2024-04-30T03:46:19.232Z,100478.22
2024-04-30T03:49:20.985Z,100486.81
2024-04-30T03:52:22.635Z,100492.66
2024-04-30T03:55:24.235Z,100501.66
2024-04-30T03:58:25.888Z,100505.25
2024-04-30T04:01:27.501Z,100495.06
2024-04-30T04:04:29.166Z,100495.88
2024-04-30T04:07:31.088Z,100485.69
2024-04-30T04:10:32.729Z,100496.31
2024-04-30T04:13:53.192Z,100488.25
2024-04-30T04:16:54.731Z,100486.41
2024-04-30T04:19:56.370Z,100497.25
2024-04-30T04:22:57.919Z,100492.09
2024-04-30T04:25:59.475Z,100491.09
2024-04-30T04:29:01.717Z,100490.91
2024-04-30T04:32:03.749Z,100485.50
2024-04-30T04:35:05.383Z,100495.88
2024-04-30T04:38:07.059Z,100484.59
2024-04-30T04:41:08.661Z,100489.00
2024-04-30T04:44:10.443Z,100496.81
2024-04-30T04:47:12.046Z,100507.03
2024-04-30T04:50:13.751Z,100498.72
2024-04-30T04:53:15.307Z,100503.84
2024-04-30T04:56:17.003Z,100502.53
2024-04-30T04:59:18.603Z,100507.03
2024-04-30T05:02:20.231Z,100505.66
2024-04-30T05:05:21.822Z,100509.03
2024-04-30T05:08:23.379Z,100513.22
2024-04-30T05:11:25.027Z,100520.84
2024-04-30T05:14:26.632Z,100514.34
2024-04-30T05:17:28.433Z,100523.91
2024-04-30T05:20:31.273Z,100518.97
2024-04-30T05:23:32.923Z,100519.13
2024-04-30T05:26:35.040Z,100512.47
2024-04-30T05:29:37.609Z,100514.88
2024-04-30T05:32:39.182Z,100519.06
2024-04-30T05:35:40.956Z,100512.44
2024-04-30T05:38:42.509Z,100504.19
2024-04-30T05:41:44.059Z,100494.31
2024-04-30T05:44:45.618Z,100503.44
2024-04-30T05:47:47.308Z,100496.41
2024-04-30T05:50:49.422Z,100499.00
2024-04-30T05:53:54.212Z,100503.31
2024-04-30T05:56:57.296Z,100490.78
2024-04-30T05:59:58.904Z,100493.03
2024-04-30T06:03:03.784Z,100496.47
2024-04-30T06:06:09.993Z,100475.91
2024-04-30T06:09:11.580Z,100474.31
2024-04-30T06:12:13.238Z,100471.81
2024-04-30T06:15:14.798Z,100483.44
2024-04-30T06:18:16.559Z,100481.44
2024-04-30T06:21:30.436Z,100481.38
2024-04-30T06:24:33.217Z,100471.38
2024-04-30T06:27:34.756Z,100483.94
2024-04-30T06:30:36.303Z,100483.25
2024-04-30T06:33:37.937Z,100473.13
2024-04-30T06:36:39.640Z,100473.78
2024-04-30T06:39:42.535Z,100469.63
2024-04-30T06:42:44.075Z,100472.50
2024-04-30T06:45:45.757Z,100469.97
2024-04-30T06:48:47.341Z,100473.13
2024-04-30T06:51:49.048Z,100475.94
2024-04-30T06:54:50.606Z,100472.72
2024-04-30T06:57:52.230Z,100462.19
2024-04-30T07:00:53.850Z,100469.38
2024-04-30T07:03:55.457Z,100470.59
2024-04-30T07:06:57.003Z,100450.72
2024-04-30T07:09:58.661Z,100447.16
2024-04-30T07:13:00.745Z,100449.22
2024-04-30T07:16:02.567Z,100443.03
2024-04-30T07:19:04.198Z,100436.97
2024-04-30T07:22:05.908Z,100445.06
2024-04-30T07:25:07.718Z,100438.28
2024-04-30T07:28:09.325Z,100442.94
2024-04-30T07:31:10.937Z,100445.22
2024-04-30T07:34:12.619Z,100436.75
2024-04-30T07:37:14.249Z,100448.16
2024-04-30T07:40:16.360Z,100452.19
2024-04-30T07:43:18.031Z,100453.50
2024-04-30T07:46:22.578Z,100450.03
2024-04-30T07:49:24.356Z,100449.97
2024-04-30T07:52:26.039Z,100449.34
2024-04-30T07:55:27.625Z,100441.66
2024-04-30T07:58:29.186Z,100441.13
2024-04-30T08:01:30.781Z,100446.38
2024-04-30T08:04:32.595Z,100447.34
2024-04-30T08:07:34.267Z,100446.06
2024-04-30T08:10:35.988Z,100441.59
2024-04-30T08:13:38.973Z,100443.13
2024-04-30T08:16:40.712Z,100439.59
2024-04-30T08:19:42.612Z,100437.78
2024-04-30T08:22:44.287Z,100434.94
2024-04-30T08:25:45.911Z,100435.69
2024-04-30T08:28:47.671Z,100440.81
2024-04-30T08:31:49.740Z,100433.31
2024-04-30T08:34:51.375Z,100434.72
2024-04-30T08:37:58.731Z,100424.69
2024-04-30T08:41:06.400Z,100416.84
2024-04-30T08:44:09.061Z,100413.78
2024-04-30T08:47:11.456Z,100410.22
2024-04-30T08:50:16.704Z,100408.88
2024-04-30T08:53:19.779Z,100398.03
2024-04-30T08:56:21.981Z,100405.66
2024-04-30T08:59:23.595Z,100397.56
2024-04-30T09:02:25.873Z,100401.94
2024-04-30T09:05:28.412Z,100395.63
2024-04-30T09:08:30.021Z,100391.69
2024-04-30T09:11:31.752Z,100389.09
2024-04-30T09:14:43.389Z,100394.94
2024-04-30T09:17:45.075Z,100386.09
2024-04-30T09:20:47.276Z,100379.06
2024-04-30T09:23:48.943Z,100379.69
2024-04-30T09:26:51.316Z,100369.22
2024-04-30T09:29:52.972Z,100369.34
2024-04-30T09:32:54.702Z,100367.41
2024-04-30T09:36:04.175Z,100360.84
2024-04-30T09:39:09.585Z,100360.56
2024-04-30T09:42:12.322Z,100355.22
2024-04-30T09:45:14.314Z,100352.81
2024-04-30T09:48:16.367Z,100347.59
2024-04-30T09:51:19.296Z,100348.63
2024-04-30T09:54:23.964Z,100357.63
2024-04-30T09:57:28.114Z,100337.84
2024-04-30T10:00:29.984Z,100343.03
2024-04-30T10:03:36.063Z,100341.31
2024-04-30T10:06:38.229Z,100332.03
2024-04-30T10:09:39.880Z,100343.09
2024-04-30T10:12:41.481Z,100335.16
2024-04-30T10:15:43.041Z,100334.94
2024-04-30T10:18:44.783Z,100336.44
2024-04-30T10:21:46.340Z,100337.84
2024-04-30T10:24:47.969Z,100327.75
2024-04-30T10:27:49.594Z,100314.13
2024-04-30T10:30:51.153Z,100306.94
2024-04-30T10:33:55.315Z,100308.06
2024-04-30T10:36:57.048Z,100298.69
2024-04-30T10:40:17.326Z,100293.16
2024-04-30T10:43:22.705Z,100287.31
2024-04-30T10:46:26.227Z,100276.91
2024-04-30T10:49:27.824Z,100270.66
2024-04-30T10:52:29.427Z,100265.56
2024-04-30T10:55:31.498Z,100258.56
2024-04-30T10:58:34.030Z,100257.00
2024-04-30T11:01:35.791Z,100256.75
2024-04-30T11:04:37.519Z,100261.09
2024-04-30T11:07:39.222Z,100252.28
2024-04-30T11:10:41.027Z,100239.25
2024-04-30T11:13:42.753Z,100239.03
2024-04-30T11:16:46.435Z,100237.81
2024-04-30T11:19:48.068Z,100233.25
2024-04-30T11:22:49.831Z,100235.75
2024-04-30T11:25:51.438Z,100220.88
2024-04-30T11:29:08.674Z,100216.50
2024-04-30T11:32:15.449Z,100206.91
2024-04-30T11:35:17.209Z,100200.13
2024-04-30T11:38:20.126Z,100189.09
2024-04-30T11:41:21.805Z,100186.94
2024-04-30T11:44:23.476Z,100198.75
2024-04-30T11:47:25.142Z,100178.03
2024-04-30T11:50:26.815Z,100179.44
2024-04-30T11:53:29.165Z,100163.25
2024-04-30T11:56:31.787Z,100161.34
2024-04-30T11:59:33.526Z,100143.09
2024-04-30T12:02:35.862Z,100145.31
2024-04-30T12:05:37.696Z,100138.81
2024-04-30T12:08:41.478Z,100131.47
2024-04-30T12:11:43.132Z,100127.47
2024-04-30T12:14:44.693Z,100126.03
2024-04-30T12:17:46.463Z,100128.38
2024-04-30T12:20:48.192Z,100129.63
2024-04-30T12:23:49.951Z,100121.28
2024-04-30T12:26:51.550Z,100118.56
2024-04-30T12:29:53.329Z,100124.91
2024-04-30T12:32:55.185Z,100121.22
2024-04-30T12:35:56.768Z,100110.81
2024-04-30T12:38:58.369Z,100115.31
2024-04-30T12:41:59.958Z,100122.44
2024-04-30T12:45:01.637Z,100108.31
2024-04-30T12:48:04.024Z,100115.25
2024-04-30T12:51:06.253Z,100112.09
2024-04-30T12:54:07.871Z,100112.63
2024-04-30T12:57:09.446Z,100112.63
2024-04-30T13:00:11.652Z,100102.22
2024-04-30T13:03:13.337Z,100100.63
2024-04-30T13:06:15.942Z,100097.81
2024-04-30T13:09:20.179Z,100094.75
2024-04-30T13:12:21.784Z,100080.34
2024-04-30T13:15:23.426Z,100080.47
2024-04-30T13:18:25.065Z,100072.50
2024-04-30T13:21:26.730Z,100073.16
2024-04-30T13:24:28.331Z,100062.00
2024-04-30T13:27:29.869Z,100068.53
2024-04-30T13:30:31.859Z,100068.03
2024-04-30T13:33:35.165Z,100057.75
2024-04-30T13:36:36.799Z,100051.47
2024-04-30T13:39:38.515Z,100047.06
2024-04-30T13:42:40.147Z,100049.00
2024-04-30T13:45:41.938Z,100047.56
2024-04-30T13:48:43.685Z,100036.41
2024-04-30T13:51:45.566Z,100044.78
2024-04-30T13:54:47.112Z,100037.66
2024-04-30T13:57:48.673Z,100031.78
2024-04-30T14:00:50.268Z,100027.94
2024-04-30T14:03:51.965Z,100020.31
2024-04-30T14:06:53.590Z,100021.06
2024-04-30T14:09:55.125Z,100003.50
2024-04-30T14:12:56.703Z,100006.22
2024-04-30T14:15:58.244Z,100002.81
2024-04-30T14:18:59.820Z,100000.47
2024-04-30T14:22:01.498Z,100000.13
2024-04-30T14:25:03.034Z,99994.34
2024-04-30T14:28:06.420Z,99989.75
2024-04-30T14:31:08.239Z,99976.69
2024-04-30T14:34:10.755Z,99981.09
2024-04-30T14:37:12.404Z,99980.22
2024-04-30T14:40:14.112Z,99967.78
2024-04-30T14:43:15.785Z,99975.56
2024-04-30T14:46:17.367Z,99972.69
2024-04-30T14:49:20.769Z,99967.50
2024-04-30T14:52:22.622Z,99973.31
2024-04-30T14:55:24.214Z,99964.44
2024-04-30T14:58:25.879Z,99953.81
2024-04-30T15:01:27.591Z,99952.53
2024-04-30T15:04:29.307Z,99951.41
2024-04-30T15:07:31.022Z,99954.41
2024-04-30T15:10:32.717Z,99948.88
2024-04-30T15:13:35.208Z,99950.88
2024-04-30T15:16:43.737Z,99940.91
2024-04-30T15:19:45.562Z,99940.94
2024-04-30T15:22:47.176Z,99934.13
2024-04-30T15:25:48.844Z,99927.06
2024-04-30T15:28:50.547Z,99922.38
2024-04-30T15:31:52.160Z,99927.44
2024-04-30T15:34:53.799Z,99918.34
2024-04-30T15:37:55.490Z,99920.91
2024-04-30T15:40:59.637Z,99921.00
2024-04-30T15:44:01.683Z,99911.00
2024-04-30T15:47:03.375Z,99905.00
2024-04-30T15:50:05.194Z,99901.97
2024-04-30T15:53:06.766Z,99905.13
2024-04-30T15:56:19.457Z,99900.44
2024-04-30T15:59:21.369Z,99888.22
2024-04-30T16:02:22.921Z,99888.72
2024-04-30T16:05:24.490Z,99887.91
2024-04-30T16:08:26.043Z,99887.53
2024-04-30T16:11:27.869Z,99880.78
2024-04-30T16:14:29.489Z,99874.41
2024-04-30T16:17:31.665Z,99867.59
2024-04-30T16:20:33.443Z,99867.97
2024-04-30T16:23:35.122Z,99877.56
2024-04-30T16:26:40.728Z,99867.53
2024-04-30T16:29:42.326Z,99873.81
2024-04-30T16:32:44.097Z,99863.56
2024-04-30T16:35:45.852Z,99868.97
2024-04-30T16:38:47.473Z,99859.69
2024-04-30T16:41:49.096Z,99855.31
2024-04-30T16:44:56.265Z,99856.66
2024-04-30T16:47:59.934Z,99859.72
2024-04-30T16:51:01.558Z,99850.25
2024-04-30T16:54:03.370Z,99844.50
2024-04-30T16:57:05.069Z,99842.13
2024-04-30T17:00:11.829Z,99848.88
2024-04-30T17:03:13.730Z,99833.66
2024-04-30T17:06:19.361Z,99830.97
2024-04-30T17:09:23.095Z,99832.09
2024-04-30T17:12:24.742Z,99823.00
2024-04-30T17:15:26.360Z,99824.50
2024-04-30T17:18:27.987Z,99821.47
2024-04-30T17:21:29.596Z,99820.94
2024-04-30T17:24:31.204Z,99818.75
2024-04-30T17:27:33.188Z,99815.63
2024-04-30T17:30:34.862Z,99817.47
2024-04-30T17:33:36.525Z,99821.34
2024-04-30T17:36:43.062Z,99826.38
2024-04-30T17:39:45.590Z,99817.91
2024-04-30T17:42:47.208Z,99821.59
2024-04-30T17:45:48.899Z,99818.69
2024-04-30T17:48:50.612Z,99814.78
2024-04-30T17:51:52.708Z,99820.44
2024-04-30T17:54:54.441Z,99818.72
2024-04-30T17:57:56.116Z,99821.34
2024-04-30T18:00:57.873Z,99811.53
2024-04-30T18:03:59.739Z,99816.38
2024-04-30T18:07:01.503Z,99820.19
2024-04-30T18:10:03.253Z,99812.91
2024-04-30T18:13:04.929Z,99810.84
2024-04-30T18:16:06.651Z,99812.63
2024-04-30T18:19:08.837Z,99813.16
2024-04-30T18:22:10.567Z,99806.31
2024-04-30T18:25:12.759Z,99806.84
2024-04-30T18:28:14.298Z,99807.47
2024-04-30T18:31:16.562Z,99804.84
2024-04-30T18:34:18.639Z,99804.75
2024-04-30T18:37:20.432Z,99810.47
2024-04-30T18:40:22.009Z,99807.38
2024-04-30T18:43:23.535Z,99801.72
2024-04-30T18:46:25.112Z,99795.19
2024-04-30T18:49:26.768Z,99795.22
2024-04-30T18:52:28.336Z,99803.34
2024-04-30T18:55:30.413Z,99800.00
2024-04-30T18:58:32.834Z,99806.03
2024-04-30T19:01:34.576Z,99804.66
2024-04-30T19:04:41.685Z,99800.94
2024-04-30T19:07:43.386Z,99812.25
2024-04-30T19:10:44.978Z,99807.75
2024-04-30T19:13:46.646Z,99805.66
2024-04-30T19:16:48.342Z,99802.25
2024-04-30T19:19:51.826Z,99798.06
2024-04-30T19:22:54.586Z,99802.19
2024-04-30T19:25:56.453Z,99803.19
2024-04-30T19:28:58.103Z,99795.88
2024-04-30T19:31:59.697Z,99799.41
2024-04-30T19:35:01.437Z,99800.66
2024-04-30T19:38:04.594Z,99792.59
2024-04-30T19:41:06.241Z,99797.13
2024-04-30T19:44:08.374Z,99793.72
2024-04-30T19:47:10.043Z,99786.06
2024-04-30T19:50:11.595Z,99792.47
2024-04-30T19:53:13.255Z,99790.31
2024-04-30T19:56:17.896Z,99795.91
2024-04-30T19:59:20.031Z,99794.03
2024-04-30T20:02:21.961Z,99791.66
2024-04-30T20:05:23.699Z,99787.06
2024-04-30T20:08:25.307Z,99784.78
2024-04-30T20:11:27.166Z,99791.25
2024-04-30T20:14:28.871Z,99779.63
2024-04-30T20:17:30.438Z,99778.47
2024-04-30T20:20:32.125Z,99777.91
2024-04-30T20:23:33.795Z,99769.97
2024-04-30T20:26:35.574Z,99771.63
2024-04-30T20:29:37.155Z,99767.00
2024-04-30T20:32:38.834Z,99762.03
2024-04-30T20:35:40.519Z,99764.91
2024-04-30T20:38:42.174Z,99758.75
2024-04-30T20:41:44.716Z,99756.94
2024-04-30T20:44:46.392Z,99753.94
2024-04-30T20:47:48.042Z,99750.28
2024-04-30T20:50:49.709Z,99750.16
2024-04-30T20:53:51.291Z,99740.22
2024-04-30T20:56:52.832Z,99743.75
2024-04-30T20:59:54.542Z,99741.16
2024-04-30T21:02:56.205Z,99731.72
2024-04-30T21:05:57.991Z,99735.38
2024-04-30T21:08:59.523Z,99736.88
2024-04-30T21:12:01.131Z,99728.63
2024-04-30T21:15:02.686Z,99739.31
2024-04-30T21:18:04.596Z,99740.28
2024-04-30T21:21:06.646Z,99742.59
2024-04-30T21:24:10.652Z,99731.78
2024-04-30T21:27:12.233Z,99729.13
2024-04-30T21:30:13.838Z,99724.53
2024-04-30T21:33:15.441Z,99719.50
2024-04-30T21:36:17.327Z,99712.34
2024-04-30T21:39:18.993Z,99712.84
2024-04-30T21:42:20.771Z,99716.63
2024-04-30T21:45:22.641Z,99710.91
2024-04-30T21:48:24.299Z,99707.38
2024-04-30T21:51:26.042Z,99707.25
2024-04-30T21:54:27.634Z,99706.28
2024-04-30T21:57:29.250Z,99703.28
2024-04-30T22:00:30.917Z,99706.53
2024-04-30T22:03:36.502Z,99702.66
2024-04-30T22:06:38.144Z,99705.81
2024-04-30T22:09:41.867Z,99707.13
2024-04-30T22:12:43.472Z,99702.38
2024-04-30T22:15:45.803Z,99700.19
2024-04-30T22:18:47.555Z,99702.25
2024-04-30T22:21:49.631Z,99692.91
2024-04-30T22:24:51.451Z,99696.53
2024-04-30T22:27:53.090Z,99697.38
2024-04-30T22:30:54.800Z,99700.25
2024-04-30T22:33:56.778Z,99698.75
2024-04-30T22:36:58.493Z,99693.06
2024-04-30T22:40:00.314Z,99683.97
2024-04-30T22:43:02.373Z,99685.16
2024-04-30T22:46:04.918Z,99685.44
2024-04-30T22:49:06.717Z,99680.66
2024-04-30T22:52:08.398Z,99682.00
2024-04-30T22:55:09.961Z,99680.94
2024-04-30T22:58:11.638Z,99688.19
2024-04-30T23:01:13.255Z,99679.91
2024-04-30T23:04:15.046Z,99675.22
2024-04-30T23:07:16.686Z,99675.31
2024-04-30T23:10:18.475Z,99677.22
2024-04-30T23:13:20.093Z,99678.41
2024-04-30T23:16:21.629Z,99685.34
2024-04-30T23:19:23.247Z,99678.19
2024-04-30T23:22:24.938Z,99677.88
2024-04-30T23:25:26.509Z,99679.69
2024-04-30T23:28:28.119Z,99674.31
2024-04-30T23:31:29.734Z,99688.34
2024-04-30T23:34:31.280Z,99674.56
2024-04-30T23:37:32.902Z,99668.28
2024-04-30T23:40:34.619Z,99668.75
2024-04-30T23:43:39.525Z,99662.34
2024-04-30T23:46:41.097Z,99662.97
2024-04-30T23:49:42.772Z,99662.97
2024-04-30T23:52:44.340Z,99659.69
2024-04-30T23:55:45.879Z,99657.50
2024-04-30T23:58:49.449Z,99668.81
